createdAt,value
2023-02-02T00:01:09.822Z,25.23
2023-02-02T00:04:23.894Z,26.63
2023-02-02T00:10:48.552Z,26.02
2023-02-02T00:13:52.486Z,25.97
2023-02-02T00:17:01.379Z,28.83
2023-02-02T00:20:08.823Z,26.67
2023-02-02T00:23:23.153Z,27.60
2023-02-02T00:26:33.620Z,26.00
2023-02-02T00:29:42.612Z,27.13
2023-02-02T00:32:51.157Z,29.00
2023-02-02T00:36:06.827Z,26.30
2023-02-02T00:39:18.077Z,27.25
2023-02-02T00:42:31.744Z,26.63
2023-02-02T00:45:46.058Z,25.50
2023-02-02T00:48:50.478Z,24.83
2023-02-02T00:52:00.841Z,24.83
2023-02-02T00:55:13.792Z,24.92
2023-02-02T00:58:27.868Z,28.95
2023-02-02T01:01:44.056Z,28.95
2023-02-02T01:04:53.337Z,35.92
2023-02-02T01:08:08.809Z,29.75
2023-02-02T01:11:14.108Z,28.33
2023-02-02T01:14:36.696Z,29.77
2023-02-02T01:17:44.709Z,31.67
2023-02-02T01:21:00.437Z,34.10
2023-02-02T01:24:05.053Z,32.25
2023-02-02T01:27:09.742Z,32.50
2023-02-02T01:30:16.002Z,34.65
2023-02-02T01:33:20.703Z,36.83
2023-02-02T01:36:25.438Z,33.67
2023-02-02T01:39:30.189Z,32.42
2023-02-02T01:42:36.440Z,32.05
2023-02-02T01:45:51.240Z,35.70
2023-02-02T01:49:07.804Z,33.67
2023-02-02T01:52:13.935Z,38.33
2023-02-02T01:55:27.298Z,39.17
2023-02-02T01:58:36.295Z,58.25
2023-02-02T02:01:40.532Z,41.15
2023-02-02T02:04:44.586Z,38.43
2023-02-02T02:07:52.715Z,38.17
2023-02-02T02:10:57.403Z,40.47
2023-02-02T02:14:32.203Z,38.35
2023-02-02T02:18:17.496Z,39.75
2023-02-02T02:21:59.852Z,41.47
2023-02-02T02:25:51.132Z,40.33
2023-02-02T02:29:53.357Z,41.30
2023-02-02T02:33:07.800Z,40.78
2023-02-02T02:36:20.093Z,40.35
2023-02-02T02:40:07.305Z,39.40
2023-02-02T02:43:28.312Z,42.13
2023-02-02T02:46:33.546Z,36.60
2023-02-02T02:49:46.710Z,39.05
2023-02-02T02:53:12.197Z,36.45
2023-02-02T02:56:37.611Z,35.95
2023-02-02T03:00:07.499Z,37.70
2023-02-02T03:03:35.776Z,35.45
2023-02-02T03:06:47.386Z,47.28
2023-02-02T03:09:56.961Z,40.97
2023-02-02T03:13:13.828Z,41.88
2023-02-02T03:16:18.393Z,40.88
2023-02-02T03:19:22.794Z,47.85
2023-02-02T03:22:27.404Z,42.15
2023-02-02T03:25:40.104Z,39.38
2023-02-02T03:28:56.782Z,72.97
2023-02-02T03:32:11.877Z,52.40
2023-02-02T03:35:23.723Z,111.18
2023-02-02T03:41:32.523Z,46.83
2023-02-02T03:44:37.172Z,45.05
2023-02-02T03:47:41.655Z,52.05
2023-02-02T03:50:45.591Z,56.45
2023-02-02T03:54:03.099Z,63.75
2023-02-02T03:57:10.044Z,113.05
2023-02-02T04:00:16.260Z,143.85
2023-02-02T04:03:31.503Z,76.70
2023-02-02T04:06:45.960Z,78.90
2023-02-02T04:09:55.362Z,102.43
2023-02-02T04:12:59.805Z,64.35
2023-02-02T04:16:04.690Z,67.07
2023-02-02T04:19:10.120Z,46.53
2023-02-02T04:22:17.224Z,48.60
2023-02-02T04:25:31.661Z,43.63
2023-02-02T04:28:35.592Z,44.30
2023-02-02T04:31:43.612Z,40.17
2023-02-02T04:34:48.496Z,41.95
2023-02-02T04:37:52.657Z,36.22
2023-02-02T04:40:57.165Z,34.20
2023-02-02T04:44:17.480Z,31.95
2023-02-02T04:47:21.444Z,29.15
2023-02-02T04:50:27.105Z,28.25
2023-02-02T04:53:31.720Z,28.63
2023-02-02T04:56:35.748Z,30.04
2023-02-02T04:59:44.942Z,29.05
2023-02-02T05:02:49.460Z,34.83
2023-02-02T05:06:06.571Z,31.35
2023-02-02T05:09:12.434Z,31.05
2023-02-02T05:12:18.799Z,32.97
2023-02-02T05:15:23.689Z,29.38
2023-02-02T05:18:32.612Z,31.02
2023-02-02T05:21:36.838Z,28.85
2023-02-02T05:24:45.661Z,31.30
2023-02-02T05:27:51.573Z,29.57
2023-02-02T05:30:56.466Z,29.65
2023-02-02T05:34:07.283Z,30.35
2023-02-02T05:37:21.123Z,26.35
2023-02-02T05:40:30.925Z,24.40
2023-02-02T05:43:36.298Z,22.15
2023-02-02T05:46:42.376Z,22.27
2023-02-02T05:49:46.479Z,23.23
2023-02-02T05:53:00.542Z,23.13
2023-02-02T05:56:16.213Z,23.45
2023-02-02T05:59:20.192Z,24.13
2023-02-02T06:02:29.756Z,22.40
2023-02-02T06:05:33.668Z,23.13
2023-02-02T06:11:50.242Z,22.10
2023-02-02T06:14:59.296Z,21.10
2023-02-02T06:18:03.708Z,23.27
2023-02-02T06:21:08.173Z,23.05
2023-02-02T06:24:12.255Z,22.63
2023-02-02T06:27:22.146Z,24.58
2023-02-02T06:30:27.863Z,24.80
2023-02-02T06:33:37.094Z,24.73
2023-02-02T06:36:42.515Z,23.85
2023-02-02T06:39:50.836Z,27.10
2023-02-02T06:43:04.197Z,25.10
2023-02-02T06:46:13.631Z,26.75
2023-02-02T06:49:18.495Z,27.98
2023-02-02T06:52:22.967Z,28.30
2023-02-02T06:55:28.641Z,28.70
2023-02-02T06:58:43.520Z,30.08
2023-02-02T07:01:59.255Z,32.38
2023-02-02T07:05:02.951Z,33.25
2023-02-02T07:08:18.130Z,35.30
2023-02-02T07:11:23.456Z,36.30
2023-02-02T07:14:28.644Z,36.72
2023-02-02T07:17:33.171Z,36.45
2023-02-02T07:20:41.055Z,36.10
2023-02-02T07:23:44.928Z,35.85
2023-02-02T07:26:50.286Z,37.78
2023-02-02T07:29:55.348Z,37.80
2023-02-02T07:33:02.346Z,38.10
2023-02-02T07:36:08.130Z,39.22
2023-02-02T07:39:21.850Z,39.95
2023-02-02T07:42:26.694Z,39.58
2023-02-02T07:45:33.391Z,41.53
2023-02-02T07:48:41.018Z,39.28
2023-02-02T07:51:49.641Z,40.45
2023-02-02T07:54:59.937Z,42.88
2023-02-02T07:58:20.376Z,44.23
2023-02-02T08:01:29.495Z,45.58
2023-02-02T08:04:34.798Z,45.90
2023-02-02T08:07:40.438Z,48.15
2023-02-02T08:10:55.084Z,52.22
2023-02-02T08:14:01.833Z,56.45
2023-02-02T08:17:12.554Z,57.80
2023-02-02T08:20:17.131Z,54.65
2023-02-02T08:23:24.159Z,52.90
2023-02-02T08:26:30.416Z,53.80
2023-02-02T08:29:39.163Z,53.00
2023-02-02T08:32:48.299Z,52.30
2023-02-02T08:35:56.823Z,51.08
2023-02-02T08:39:03.297Z,54.33
2023-02-02T08:42:08.923Z,52.65
2023-02-02T08:46:02.074Z,49.78
2023-02-02T08:48:51.973Z,51.75
2023-02-02T08:52:06.701Z,53.80
2023-02-02T08:55:11.278Z,63.35
2023-02-02T08:58:23.637Z,55.40
2023-02-02T09:01:37.962Z,60.30
2023-02-02T09:04:45.748Z,53.92
2023-02-02T09:07:50.369Z,51.88
2023-02-02T09:10:55.759Z,51.63
2023-02-02T09:14:03.015Z,50.08
2023-02-02T09:17:13.052Z,49.63
2023-02-02T09:20:28.191Z,50.33
2023-02-02T09:23:34.099Z,51.22
2023-02-02T09:26:40.804Z,49.03
2023-02-02T09:29:45.156Z,47.28
2023-02-02T09:32:51.542Z,45.22
2023-02-02T09:35:57.004Z,45.83
2023-02-02T09:39:16.960Z,49.03
2023-02-02T09:42:31.121Z,44.65
2023-02-02T09:46:01.610Z,41.33
2023-02-02T09:52:30.629Z,31.23
2023-02-02T09:55:44.074Z,33.08
2023-02-02T09:58:55.256Z,29.55
2023-02-02T10:02:24.667Z,26.08
2023-02-02T10:05:56.087Z,52.85
2023-02-02T10:09:31.163Z,35.20
2023-02-02T10:12:48.100Z,39.25
2023-02-02T10:16:04.279Z,34.97
2023-02-02T10:19:14.589Z,30.73
2023-02-02T10:22:24.403Z,33.17
2023-02-02T10:25:30.512Z,38.17
2023-02-02T10:28:55.565Z,35.72
2023-02-02T10:32:26.270Z,37.42
2023-02-02T10:35:43.656Z,35.80
2023-02-02T10:39:00.104Z,36.17
2023-02-02T10:42:20.517Z,34.97
2023-02-02T10:45:24.800Z,28.98
2023-02-02T10:48:36.072Z,26.88
2023-02-02T10:51:42.735Z,26.33
2023-02-02T10:54:58.901Z,26.63
2023-02-02T10:58:12.959Z,49.63
2023-02-02T11:01:18.604Z,35.35
2023-02-02T11:04:41.965Z,31.60
2023-02-02T11:07:57.057Z,26.55
2023-02-02T11:11:13.884Z,22.13
2023-02-02T11:14:45.230Z,21.45
2023-02-02T11:18:16.422Z,22.33
2023-02-02T11:21:28.399Z,23.80
2023-02-02T11:24:47.812Z,27.35
2023-02-02T11:27:52.505Z,28.38
2023-02-02T11:31:03.104Z,43.92
2023-02-02T11:34:27.430Z,37.13
2023-02-02T11:38:11.148Z,38.85
2023-02-02T11:41:17.593Z,34.50
2023-02-02T11:44:28.068Z,31.85
2023-02-02T11:47:39.924Z,34.97
2023-02-02T11:50:55.831Z,34.25
2023-02-02T11:54:15.362Z,32.08
2023-02-02T11:57:31.011Z,33.30
2023-02-02T12:00:51.266Z,33.93
2023-02-02T12:04:05.072Z,37.90
2023-02-02T12:07:33.436Z,35.88
2023-02-02T12:10:48.175Z,34.20
2023-02-02T12:14:01.408Z,34.90
2023-02-02T12:17:11.095Z,36.15
2023-02-02T12:20:52.465Z,36.03
2023-02-02T12:24:14.249Z,34.70
2023-02-02T12:27:42.683Z,97.97
2023-02-02T12:31:28.376Z,43.47
2023-02-02T12:34:58.449Z,44.15
2023-02-02T12:38:32.341Z,39.58
2023-02-02T12:42:00.437Z,44.80
2023-02-02T12:45:30.187Z,31.30
2023-02-02T12:49:11.782Z,51.30
2023-02-02T12:52:33.130Z,33.72
2023-02-02T12:55:45.365Z,31.10
2023-02-02T12:59:55.722Z,31.58
2023-02-02T13:07:40.481Z,31.35
2023-02-02T13:10:56.419Z,38.30
2023-02-02T13:14:09.077Z,55.45
2023-02-02T13:17:19.089Z,50.15
2023-02-02T13:20:51.328Z,49.03
2023-02-02T13:24:03.436Z,54.25
2023-02-02T13:27:19.059Z,42.35
2023-02-02T13:30:36.936Z,40.72
2023-02-02T13:33:44.162Z,38.17
2023-02-02T13:37:14.955Z,36.53
2023-02-02T13:40:28.405Z,35.05
2023-02-02T13:43:57.523Z,35.90
2023-02-02T13:47:29.817Z,35.40
2023-02-02T13:50:51.748Z,40.20
2023-02-02T13:54:55.728Z,78.88
2023-02-02T13:58:22.155Z,76.13
2023-02-02T14:01:26.919Z,76.82
2023-02-02T14:04:37.460Z,75.00
2023-02-02T14:07:47.619Z,76.65
2023-02-02T14:10:55.005Z,78.47
2023-02-02T14:14:35.674Z,109.43
2023-02-02T14:17:40.891Z,97.03
2023-02-02T14:20:50.867Z,149.70
2023-02-02T14:23:56.763Z,105.72
2023-02-02T14:27:11.499Z,104.78
2023-02-02T14:30:23.278Z,91.93
2023-02-02T14:33:40.291Z,81.40
2023-02-02T14:37:17.719Z,67.20
2023-02-02T14:40:57.673Z,57.67
2023-02-02T14:44:13.045Z,50.58
2023-02-02T14:47:46.371Z,55.10
2023-02-02T14:50:58.698Z,55.20
2023-02-02T14:54:07.536Z,59.88
2023-02-02T14:57:28.198Z,64.97
2023-02-02T15:00:35.914Z,65.05
2023-02-02T15:03:57.247Z,64.50
2023-02-02T15:07:24.121Z,63.13
2023-02-02T15:10:54.775Z,63.15
2023-02-02T15:14:07.560Z,61.10
2023-02-02T15:17:40.249Z,55.53
2023-02-02T15:21:00.621Z,51.35
2023-02-02T15:24:07.552Z,50.00
2023-02-02T15:27:18.360Z,48.28
2023-02-02T15:30:31.081Z,47.13
2023-02-02T15:33:45.633Z,44.88
2023-02-02T15:36:55.050Z,48.15
2023-02-02T15:40:03.311Z,45.85
2023-02-02T15:43:13.988Z,45.95
2023-02-02T15:46:29.721Z,45.10
2023-02-02T15:49:36.598Z,45.80
2023-02-02T15:52:52.519Z,46.33
2023-02-02T15:55:58.286Z,46.50
2023-02-02T15:59:02.986Z,45.58
2023-02-02T16:05:26.386Z,45.45
2023-02-02T16:08:40.740Z,52.33
2023-02-02T16:11:46.910Z,50.75
2023-02-02T16:14:54.697Z,49.08
2023-02-02T16:18:24.843Z,51.17
2023-02-02T16:21:31.760Z,48.42
2023-02-02T16:24:43.742Z,48.42
2023-02-02T16:28:03.947Z,49.78
2023-02-02T16:31:08.169Z,49.42
2023-02-02T16:34:47.108Z,54.10
2023-02-02T16:37:51.563Z,55.05
2023-02-02T16:41:15.379Z,51.92
2023-02-02T16:44:37.927Z,53.50
2023-02-02T16:47:42.291Z,54.60
2023-02-02T16:51:06.553Z,58.72
2023-02-02T16:57:34.201Z,53.13
2023-02-02T17:00:40.182Z,70.13
2023-02-02T17:03:56.209Z,69.10
2023-02-02T17:07:13.990Z,70.95
2023-02-02T17:10:36.663Z,72.83
2023-02-02T17:13:42.075Z,95.70
2023-02-02T17:16:46.846Z,151.52
2023-02-02T17:19:51.383Z,163.23
2023-02-02T17:23:07.278Z,165.65
2023-02-02T17:26:13.824Z,112.55
2023-02-02T17:29:27.091Z,97.72
2023-02-02T17:32:41.252Z,94.28
2023-02-02T17:35:54.942Z,100.82
2023-02-02T17:39:00.761Z,99.97
2023-02-02T17:42:06.753Z,85.35
2023-02-02T17:45:20.834Z,85.18
2023-02-02T17:48:30.091Z,78.28
2023-02-02T17:51:41.382Z,75.20
2023-02-02T17:54:56.714Z,77.85
2023-02-02T17:58:01.526Z,75.07
2023-02-02T18:01:05.769Z,80.03
2023-02-02T18:04:20.072Z,62.50
2023-02-02T18:07:34.955Z,71.68
2023-02-02T18:10:42.063Z,83.88
2023-02-02T18:13:46.598Z,90.85
2023-02-02T18:16:56.708Z,118.75
2023-02-02T18:20:06.980Z,145.27
2023-02-02T18:23:12.099Z,164.38
2023-02-02T18:26:23.148Z,167.10
2023-02-02T18:29:27.021Z,179.98
2023-02-02T18:32:30.739Z,188.65
2023-02-02T18:35:35.012Z,198.23
2023-02-02T18:38:46.977Z,173.75
2023-02-02T18:41:50.701Z,175.70
2023-02-02T18:44:54.664Z,187.38
2023-02-02T18:48:04.513Z,163.02
2023-02-02T18:51:17.030Z,180.00
2023-02-02T18:54:20.924Z,222.57
2023-02-02T18:57:27.093Z,159.75
2023-02-02T19:00:42.481Z,141.73
2023-02-02T19:04:00.003Z,148.15
2023-02-02T19:07:22.378Z,142.65
2023-02-02T19:10:29.348Z,143.40
2023-02-02T19:13:43.240Z,151.52
2023-02-02T19:17:01.797Z,152.25
2023-02-02T19:20:24.887Z,185.40
2023-02-02T19:23:35.379Z,177.57
2023-02-02T19:26:51.407Z,206.10
2023-02-02T19:30:00.434Z,197.90
2023-02-02T19:33:12.374Z,159.65
2023-02-02T19:36:24.858Z,198.50
2023-02-02T19:39:32.279Z,157.70
2023-02-02T19:42:57.061Z,187.75
2023-02-02T19:46:17.252Z,163.77
2023-02-02T19:49:34.757Z,163.38
2023-02-02T19:53:06.907Z,136.93
2023-02-02T19:56:38.652Z,128.18
2023-02-02T19:59:51.055Z,157.55
2023-02-02T20:02:59.657Z,113.72
2023-02-02T20:06:05.383Z,161.45
2023-02-02T20:09:17.844Z,136.82
2023-02-02T20:12:31.364Z,129.45
2023-02-02T20:15:45.022Z,143.45
2023-02-02T20:18:55.127Z,143.27
2023-02-02T20:21:58.997Z,134.65
2023-02-02T20:25:07.339Z,133.07
2023-02-02T20:28:42.114Z,142.07
2023-02-02T20:31:47.963Z,140.85
2023-02-02T20:34:53.468Z,142.18
2023-02-02T20:37:57.897Z,178.52
2023-02-02T20:41:02.834Z,172.27
2023-02-02T20:44:08.657Z,169.13
2023-02-02T20:47:14.082Z,171.93
2023-02-02T20:50:21.158Z,155.57
2023-02-02T20:53:35.775Z,155.55
2023-02-02T20:56:39.585Z,159.27
2023-02-02T20:59:44.513Z,149.35
2023-02-02T21:02:49.056Z,156.98
2023-02-02T21:06:03.111Z,152.82
2023-02-02T21:09:09.268Z,121.82
2023-02-02T21:12:14.260Z,130.25
2023-02-02T21:15:18.711Z,138.60
2023-02-02T21:18:32.533Z,136.90
2023-02-02T21:21:36.915Z,123.60
2023-02-02T21:24:45.964Z,137.80
2023-02-02T21:27:49.575Z,147.23
2023-02-02T21:30:59.850Z,155.18
2023-02-02T21:34:03.629Z,145.45
2023-02-02T21:37:16.495Z,137.32
2023-02-02T21:40:30.121Z,124.25
2023-02-02T21:43:39.824Z,125.63
2023-02-02T21:46:51.443Z,118.72
2023-02-02T21:50:37.671Z,111.40
2023-02-02T21:53:41.698Z,101.28
2023-02-02T21:56:56.546Z,90.15
2023-02-02T22:00:01.791Z,94.93
2023-02-02T22:03:34.117Z,93.10
2023-02-02T22:06:42.628Z,89.53
2023-02-02T22:09:54.761Z,85.43
2023-02-02T22:13:19.329Z,81.82
2023-02-02T22:16:23.610Z,86.72
2023-02-02T22:19:38.513Z,89.15
2023-02-02T22:22:53.283Z,97.75
2023-02-02T22:25:59.334Z,113.05
2023-02-02T22:29:18.111Z,144.40
2023-02-02T22:32:27.383Z,159.43
2023-02-02T22:35:35.792Z,172.88
2023-02-02T22:38:39.759Z,111.60
2023-02-02T22:41:54.242Z,134.75
2023-02-02T22:44:58.138Z,173.90
2023-02-02T22:48:03.184Z,139.57
2023-02-02T22:51:07.576Z,154.77
2023-02-02T22:54:21.304Z,117.63
2023-02-02T22:57:25.745Z,109.35
2023-02-02T23:00:33.353Z,114.75
2023-02-02T23:03:38.092Z,111.40
2023-02-02T23:06:47.329Z,107.93
2023-02-02T23:09:56.330Z,99.43
2023-02-02T23:13:06.399Z,104.07
2023-02-02T23:16:11.302Z,105.55
2023-02-02T23:19:21.045Z,104.63
2023-02-02T23:22:25.060Z,109.93
2023-02-02T23:25:29.509Z,111.28
2023-02-02T23:28:33.667Z,114.38
2023-02-02T23:31:38.150Z,116.55
2023-02-02T23:34:47.344Z,118.25
2023-02-02T23:38:01.610Z,125.07
2023-02-02T23:41:10.999Z,116.97
2023-02-02T23:44:24.847Z,122.32
2023-02-02T23:47:29.895Z,176.38
2023-02-02T23:50:38.334Z,194.75
2023-02-02T23:53:43.207Z,141.30
2023-02-02T23:56:50.870Z,105.03
2023-02-02T23:59:55.497Z,113.22
